Time;durP1;ratioP1;P1;durP2;ratioP2;P2;SDS_P1;SDS_P2;PMS_P1;PMS_P2;Temp;Humidity;BMP_temperature;BMP_pressure;BME280_temperature;BME280_humidity;BME280_pressure;Samples;Min_cycle;Max_cycle;Signal;HPM_P1;HPM_P2
2023/06/17 00:00:12;;;;;;;2.33;2.13;;;15.60;99.90;;;;;;5149363;28;20034;-69
2023/06/17 00:02:44;;;;;;;1.50;1.40;;;15.60;99.90;;;;;;5135817;28;20369;-69
2023/06/17 00:05:15;;;;;;;2.08;1.88;;;15.50;1.00;;;;;;5151317;28;20054;-67
2023/06/17 00:07:46;;;;;;;3.03;2.20;;;15.40;1.00;;;;;;5165019;28;20026;-66
2023/06/17 00:10:19;;;;;;;2.33;2.03;;;15.40;1.00;;;;;;5142264;28;20049;-69
2023/06/17 00:12:50;;;;;;;2.00;1.88;;;15.30;1.00;;;;;;5146034;28;20038;-69
2023/06/17 00:15:24;;;;;;;2.80;2.15;;;15.30;1.00;;;;;;5154946;28;20027;-69
2023/06/17 00:18:00;;;;;;;3.00;2.05;;;15.20;50.10;;;;;;5173568;28;20092;-68
2023/06/17 00:20:36;;;;;;;2.67;2.03;;;15.30;32.30;;;;;;5156781;28;20028;-68
2023/06/17 00:23:08;;;;;;;2.25;1.90;;;15.40;1.00;;;;;;5157263;28;20491;-69
2023/06/17 00:25:39;;;;;;;3.85;1.92;;;15.50;1.00;;;;;;5157456;28;20030;-69
2023/06/17 00:28:10;;;;;;;2.33;1.83;;;15.50;1.00;;;;;;5158462;28;20080;-67
2023/06/17 00:30:47;;;;;;;1.83;1.70;;;15.60;1.00;;;;;;5152833;28;20292;-68
2023/06/17 00:33:19;;;;;;;2.67;2.00;;;15.60;1.00;;;;;;5157767;28;20030;-65
2023/06/17 00:35:53;;;;;;;1.90;1.80;;;15.70;1.00;;;;;;5157830;28;20032;-68
2023/06/17 00:38:24;;;;;;;2.50;2.30;;;15.70;1.00;;;;;;5157461;28;20027;-68
2023/06/17 00:40:58;;;;;;;2.63;2.08;;;15.70;1.00;;;;;;5158536;28;20399;-69
2023/06/17 00:43:30;;;;;;;3.10;2.15;;;15.70;1.00;;;;;;5138792;28;20052;-66
2023/06/17 00:46:04;;;;;;;4.18;2.30;;;15.60;1.00;;;;;;5149252;28;20028;-69
2023/06/17 00:48:35;;;;;;;2.67;2.25;;;15.60;1.00;;;;;;5169492;28;20034;-69
2023/06/17 00:51:08;;;;;;;2.75;2.30;;;15.60;97.50;;;;;;5157889;28;20038;-69
2023/06/17 00:53:40;;;;;;;2.45;2.20;;;15.60;95.20;;;;;;5166773;28;20035;-68
2023/06/17 00:56:17;;;;;;;4.55;2.90;;;15.50;99.90;;;;;;5173130;28;20085;-70
2023/06/17 00:58:50;;;;;;;2.58;1.95;;;15.50;99.90;;;;;;5171813;28;20041;-68
2023/06/17 01:01:21;;;;;;;2.30;2.10;;;15.50;99.90;;;;;;5191478;22;20048;-86
2023/06/17 01:03:53;;;;;;;2.45;2.25;;;15.50;99.90;;;;;;5203840;28;20272;-86
2023/06/17 01:06:55;;;;;;;2.50;2.30;;;15.40;99.90;;;;;;5193609;28;20336;-85
2023/06/17 01:09:37;;;;;;;2.55;2.15;;;15.30;1.00;;;;;;5205279;28;20331;-85
2023/06/17 01:12:10;;;;;;;2.78;2.28;;;15.30;1.00;;;;;;5205033;28;20028;-85
2023/06/17 01:14:43;;;;;;;2.80;2.38;;;15.30;1.00;;;;;;5206344;28;20036;-86
2023/06/17 01:17:17;;;;;;;3.22;2.65;;;15.30;1.00;;;;;;5204911;28;20033;-85
2023/06/17 01:19:54;;;;;;;2.95;2.60;;;15.30;1.00;;;;;;5203246;28;20033;-86
2023/06/17 01:22:26;;;;;;;2.67;2.10;;;15.30;1.00;;;;;;5204664;28;20041;-85
2023/06/17 01:25:01;;;;;;;3.15;2.58;;;15.30;1.00;;;;;;5204702;28;20029;-86
2023/06/17 01:27:37;;;;;;;3.13;2.50;;;15.30;1.00;;;;;;5203411;28;20025;-88
2023/06/17 01:30:11;;;;;;;2.67;2.00;;;15.30;1.00;;;;;;5203338;28;20214;-85
2023/06/17 01:32:45;;;;;;;2.30;2.10;;;15.30;1.00;;;;;;5203223;28;20035;-85
2023/06/17 01:38:55;;;;;;;3.78;2.55;;;15.20;1.00;;;;;;5203812;28;20033;-85
2023/06/17 01:41:36;;;;;;;2.63;2.30;;;15.20;1.00;;;;;;5204830;28;20029;-84
2023/06/17 01:44:08;;;;;;;3.13;2.10;;;15.10;1.00;;;;;;5204499;28;20036;-85
2023/06/17 01:53:17;;;;;;;2.47;1.95;;;15.00;15.40;;;;;;5202726;28;20208;-85
2023/06/17 01:55:53;;;;;;;3.15;2.30;;;14.90;50.40;;;;;;5218734;28;20029;-84
2023/06/17 01:58:28;;;;;;;3.85;2.75;;;14.90;99.90;;;;;;5201489;28;20037;-85
2023/06/17 02:01:02;;;;;;;3.22;2.55;;;14.90;99.90;;;;;;5218522;28;20044;-85
2023/06/17 02:03:37;;;;;;;3.67;2.60;;;14.80;99.90;;;;;;5204755;28;20059;-86
2023/06/17 02:06:08;;;;;;;3.72;2.72;;;14.80;99.90;;;;;;5208113;28;20041;-88
2023/06/17 02:08:40;;;;;;;3.75;2.65;;;14.80;99.90;;;;;;5185763;28;20036;-85
2023/06/17 02:11:11;;;;;;;2.45;2.10;;;14.70;99.90;;;;;;5202697;28;20029;-85
2023/06/17 02:13:45;;;;;;;4.93;2.65;;;14.60;1.00;;;;;;5201864;28;20342;-85
2023/06/17 02:16:17;;;;;;;6.00;3.20;;;14.60;1.00;;;;;;5205289;28;20033;-86
2023/06/17 02:18:52;;;;;;;3.17;2.85;;;14.60;1.00;;;;;;5208043;28;20032;-84
2023/06/17 02:21:29;;;;;;;3.85;2.38;;;14.70;99.90;;;;;;5208568;28;20029;-84
2023/06/17 02:24:02;;;;;;;3.40;2.58;;;14.80;99.90;;;;;;5221937;28;20025;-87
2023/06/17 02:26:34;;;;;;;3.28;2.78;;;14.80;99.90;;;;;;5201844;28;20227;-87
2023/06/17 02:29:10;;;;;;;2.42;2.22;;;15.00;99.90;;;;;;5201414;28;20033;-84
2023/06/17 02:31:44;;;;;;;3.88;2.17;;;15.10;97.40;;;;;;5201576;28;20176;-87
2023/06/17 02:34:19;;;;;;;4.07;2.42;;;15.20;42.80;;;;;;5201404;28;20030;-85
2023/06/17 02:36:50;;;;;;;5.13;2.35;;;15.30;1.00;;;;;;5201454;28;20308;-84
2023/06/17 02:39:30;;;;;;;3.65;2.60;;;15.30;1.00;;;;;;5201811;28;20029;-84
2023/06/17 02:42:01;;;;;;;3.17;2.22;;;15.30;1.00;;;;;;5201202;28;20032;-85
2023/06/17 02:44:36;;;;;;;5.07;2.30;;;15.30;1.00;;;;;;5200922;28;20038;-85
2023/06/17 02:47:10;;;;;;;3.17;2.42;;;15.20;1.00;;;;;;5201142;28;20035;-84
2023/06/17 02:49:44;;;;;;;2.40;2.10;;;15.30;1.00;;;;;;5201085;28;20025;-86
2023/06/17 02:52:18;;;;;;;2.88;2.35;;;15.20;1.00;;;;;;5201275;28;20333;-85
2023/06/17 02:55:08;;;;;;;3.20;2.83;;;15.30;1.00;;;;;;5224912;28;20028;-84
2023/06/17 02:57:39;;;;;;;3.08;2.42;;;15.30;1.00;;;;;;5200939;28;20040;-85
2023/06/17 03:00:11;;;;;;;2.67;2.40;;;15.20;1.00;;;;;;5200560;28;20033;-84
2023/06/17 03:02:42;;;;;;;3.92;2.50;;;15.20;1.00;;;;;;5200919;28;20037;-85
2023/06/17 03:05:14;;;;;;;2.85;2.20;;;15.10;1.00;;;;;;5198584;28;20101;-84
2023/06/17 03:07:46;;;;;;;3.45;2.72;;;15.10;1.00;;;;;;5192141;28;20029;-84
2023/06/17 03:10:18;;;;;;;5.05;2.75;;;15.10;1.00;;;;;;5217164;28;20037;-84
2023/06/17 03:12:49;;;;;;;3.60;2.58;;;15.10;78.40;;;;;;5200089;28;20036;-85
2023/06/17 03:15:20;;;;;;;3.58;3.00;;;15.10;19.50;;;;;;5200684;28;20033;-84
2023/06/17 03:17:52;;;;;;;3.28;2.95;;;15.20;63.30;;;;;;5200783;28;20034;-84
2023/06/17 03:20:30;;;;;;;3.25;2.80;;;15.20;1.00;;;;;;5200462;28;20040;-84
2023/06/17 03:23:04;;;;;;;3.83;2.80;;;15.20;1.00;;;;;;5200356;28;20033;-85
2023/06/17 03:25:38;;;;;;;4.95;3.13;;;15.30;1.00;;;;;;5200330;28;20037;-85
2023/06/17 03:28:12;;;;;;;3.42;3.05;;;15.40;1.00;;;;;;5200351;28;20032;-85
2023/06/17 03:30:45;;;;;;;3.88;2.63;;;15.40;1.00;;;;;;5200224;28;20029;-84
2023/06/17 03:33:18;;;;;;;5.15;3.03;;;15.50;1.00;;;;;;5200390;28;20303;-85
2023/06/17 03:35:50;;;;;;;4.55;3.35;;;15.60;1.00;;;;;;5200266;28;20044;-83
2023/06/17 03:38:22;;;;;;;3.03;2.35;;;15.70;1.00;;;;;;5200510;28;20033;-85
2023/06/17 03:40:53;;;;;;;3.55;2.90;;;15.80;1.00;;;;;;5200397;28;20038;-84
2023/06/17 03:43:28;;;;;;;4.43;2.78;;;15.80;1.00;;;;;;5204910;28;20037;-84
2023/06/17 03:46:02;;;;;;;5.45;3.03;;;15.80;1.00;;;;;;5204134;28;20033;-84
2023/06/17 03:48:36;;;;;;;4.55;3.80;;;15.90;1.00;;;;;;5204001;28;20025;-84
2023/06/17 03:51:11;;;;;;;4.35;3.35;;;15.80;1.00;;;;;;5204004;28;20029;-85
2023/06/17 03:53:45;;;;;;;3.38;2.90;;;15.80;1.00;;;;;;5205544;28;20218;-84
2023/06/17 03:56:16;;;;;;;3.95;3.05;;;15.70;2.30;;;;;;5206190;28;20029;-85
2023/06/17 03:58:47;;;;;;;4.68;3.55;;;15.70;41.90;;;;;;5203992;28;20033;-84
2023/06/17 04:01:24;;;;;;;4.45;3.00;;;15.80;1.00;;;;;;5204666;28;20319;-84
2023/06/17 04:03:58;;;;;;;4.78;2.65;;;15.80;99.90;;;;;;5204614;28;20041;-85
2023/06/17 04:06:37;;;;;;;4.30;2.33;;;15.90;1.00;;;;;;5211157;28;20033;-86
2023/06/17 04:09:08;;;;;;;4.30;3.13;;;15.80;11.80;;;;;;5204590;28;20029;-85
2023/06/17 04:11:41;;;;;;;4.35;2.83;;;15.80;59.30;;;;;;5220573;28;20025;-85
2023/06/17 04:14:12;;;;;;;3.83;2.90;;;15.90;19.80;;;;;;5204728;28;20328;-85
2023/06/17 04:16:50;;;;;;;4.05;3.15;;;15.80;1.00;;;;;;5203594;28;20302;-86
2023/06/17 04:19:23;;;;;;;3.47;3.08;;;15.90;99.90;;;;;;5204157;28;20051;-85
2023/06/17 04:21:55;;;;;;;4.15;3.55;;;16.00;1.00;;;;;;5203367;28;20036;-86
2023/06/17 04:24:27;;;;;;;3.65;2.80;;;16.10;1.00;;;;;;5220713;28;20108;-86
2023/06/17 04:27:03;;;;;;;5.35;3.20;;;16.10;1.00;;;;;;5203983;28;20033;-85
2023/06/17 04:29:40;;;;;;;4.00;3.28;;;16.10;1.00;;;;;;5203861;28;20029;-87
2023/06/17 04:32:15;;;;;;;4.43;3.70;;;16.10;1.00;;;;;;5204208;28;20029;-87
2023/06/17 04:34:47;;;;;;;5.72;3.95;;;16.20;1.00;;;;;;5203804;28;20031;-83
2023/06/17 04:37:25;;;;;;;3.55;2.80;;;16.30;1.00;;;;;;5203604;28;20037;-85
2023/06/17 04:39:58;;;;;;;4.05;2.75;;;16.40;1.00;;;;;;5204152;28;20025;-84
2023/06/17 04:42:40;;;;;;;4.43;3.50;;;16.50;1.00;;;;;;5203534;28;20047;-84
2023/06/17 04:45:11;;;;;;;5.57;3.10;;;16.60;1.00;;;;;;5203079;28;20188;-85
2023/06/17 04:47:50;;;;;;;3.75;2.80;;;16.60;1.00;;;;;;5203616;28;20033;-84
2023/06/17 04:50:23;;;;;;;3.75;2.90;;;16.80;1.00;;;;;;5203277;28;20246;-84
2023/06/17 04:53:03;;;;;;;3.25;2.92;;;16.90;1.00;;;;;;5201769;28;20030;-86
2023/06/17 04:55:35;;;;;;;2.95;2.65;;;17.10;1.00;;;;;;5203283;28;20039;-84
2023/06/17 04:58:09;;;;;;;2.80;2.53;;;17.10;1.00;;;;;;5202863;28;20230;-84
2023/06/17 05:00:43;;;;;;;;;;;17.10;99.90;;;;;;5203481;28;20037;-84
2023/06/17 05:03:18;;;;;;;2.90;2.45;;;17.40;1.00;;;;;;5235590;28;20091;-83
2023/06/17 05:05:51;;;;;;;3.47;3.17;;;17.40;1.00;;;;;;5191761;28;20092;-86
2023/06/17 05:08:24;;;;;;;4.00;2.97;;;17.20;1.00;;;;;;5201671;28;20353;-85
2023/06/17 05:10:56;;;;;;;3.63;2.75;;;17.20;1.00;;;;;;5201722;28;20242;-85
2023/06/17 05:13:27;;;;;;;3.80;2.80;;;17.30;1.00;;;;;;5201707;28;20025;-83
2023/06/17 05:16:08;;;;;;;4.10;3.20;;;17.40;1.00;;;;;;5213168;28;20040;-85
2023/06/17 05:18:41;;;;;;;4.35;2.97;;;17.30;1.00;;;;;;5182144;28;20032;-86
2023/06/17 05:21:12;;;;;;;5.37;3.70;;;17.40;1.00;;;;;;5165607;28;20035;-85
2023/06/17 05:23:48;;;;;;;3.58;3.10;;;17.40;1.00;;;;;;5182135;28;20040;-84
2023/06/17 05:29:48;;;;;;;3.42;2.67;;;17.70;1.00;;;;;;5214480;28;20026;-84
2023/06/17 05:32:22;;;;;;;4.07;3.17;;;17.80;1.00;;;;;;5165370;28;20036;-86
2023/06/17 05:34:54;;;;;;;4.28;3.30;;;17.50;1.00;;;;;;5165314;28;20030;-85
2023/06/17 05:37:32;;;;;;;3.85;3.15;;;17.60;1.00;;;;;;5165510;28;20025;-84
2023/06/17 05:40:07;;;;;;;4.65;3.72;;;17.60;1.00;;;;;;5214291;28;20186;-85
2023/06/17 05:42:41;;;;;;;6.70;4.28;;;17.90;1.00;;;;;;5165343;28;20047;-85
2023/06/17 05:45:13;;;;;;;3.97;3.07;;;18.10;1.00;;;;;;5165405;28;20177;-85
2023/06/17 05:47:46;;;;;;;3.40;2.97;;;18.30;1.00;;;;;;5165217;28;20255;-85
2023/06/17 05:50:17;;;;;;;3.88;3.28;;;18.50;99.90;;;;;;5164510;28;20033;-85
2023/06/17 05:52:48;;;;;;;3.88;2.60;;;18.40;99.90;;;;;;5185952;28;20033;-85
2023/06/17 05:55:20;;;;;;;3.35;2.53;;;18.50;99.90;;;;;;5204536;28;20026;-85
2023/06/17 05:57:52;;;;;;;3.35;2.65;;;18.90;99.90;;;;;;5202780;28;20035;-85
2023/06/17 06:00:23;;;;;;;2.78;2.40;;;19.30;99.90;;;;;;5218728;28;20025;-86
2023/06/17 06:03:02;;;;;;;2.42;2.20;;;20.00;99.90;;;;;;5202870;28;20037;-84
2023/06/17 06:09:03;;;;;;;2.00;1.70;;;19.80;99.90;;;;;;5202106;28;20021;-85
2023/06/17 06:11:34;;;;;;;4.80;2.10;;;19.40;99.90;;;;;;5202518;28;20029;-86
2023/06/17 06:14:08;;;;;;;2.95;2.20;;;19.60;99.90;;;;;;5202583;28;20043;-85
2023/06/17 06:16:44;;;;;;;2.72;2.08;;;19.50;99.90;;;;;;5202831;28;20196;-85
2023/06/17 06:19:16;;;;;;;2.55;1.67;;;19.50;99.90;;;;;;5201809;28;20059;-85
2023/06/17 06:21:47;;;;;;;3.72;2.00;;;19.50;99.90;;;;;;5202166;28;20033;-85
2023/06/17 06:24:19;;;;;;;4.03;2.97;;;19.60;99.90;;;;;;5185670;28;20227;-86
2023/06/17 06:26:50;;;;;;;2.80;1.80;;;19.40;99.90;;;;;;5201176;28;20033;-84
2023/06/17 06:29:22;;;;;;;5.22;1.98;;;19.70;99.90;;;;;;5201631;28;20349;-85
2023/06/17 06:31:53;;;;;;;2.45;1.85;;;19.70;99.90;;;;;;5200422;28;20029;-84
2023/06/17 06:34:28;;;;;;;3.80;2.30;;;19.50;36.40;;;;;;5200863;28;20031;-84
2023/06/17 06:37:00;;;;;;;2.28;2.05;;;19.10;99.90;;;;;;5217471;28;20035;-87
2023/06/17 06:39:31;;;;;;;3.25;2.45;;;18.90;93.40;;;;;;5185314;28;20048;-85
2023/06/17 06:42:32;;;;;;;2.33;1.98;;;19.40;86.40;;;;;;5202224;28;20075;-84
2023/06/17 06:45:24;;;;;;;2.42;1.77;;;19.40;1.00;;;;;;5221250;28;20052;-86
2023/06/17 06:47:55;;;;;;;3.30;2.25;;;19.70;1.00;;;;;;5200812;28;20038;-83
2023/06/17 06:50:30;;;;;;;2.92;2.33;;;19.70;1.00;;;;;;5205068;28;20029;-85
2023/06/17 06:53:10;;;;;;;2.50;2.17;;;19.70;1.00;;;;;;5202064;28;20032;-86
2023/06/17 06:55:41;;;;;;;2.78;1.98;;;19.70;1.00;;;;;;5192270;28;20043;-85
2023/06/17 06:58:13;;;;;;;3.63;2.22;;;20.20;1.00;;;;;;5204622;28;20029;-85
2023/06/17 07:00:50;;;;;;;3.28;1.98;;;20.20;1.00;;;;;;5185971;28;20037;-86
2023/06/17 07:03:30;;;;;;;3.50;2.15;;;20.20;1.00;;;;;;5218349;28;20048;-86
2023/06/17 07:06:11;;;;;;;2.22;1.88;;;20.30;1.00;;;;;;5175671;28;20067;-86
2023/06/17 07:08:52;;;;;;;2.10;1.58;;;20.40;1.00;;;;;;5220069;28;20025;-84
2023/06/17 07:11:29;;;;;;;2.65;1.83;;;20.40;1.00;;;;;;5208495;28;20039;-86
2023/06/17 07:14:07;;;;;;;1.83;1.70;;;20.00;1.00;;;;;;5211249;28;20036;-87
2023/06/17 07:19:59;;;;;;;2.03;1.75;;;19.50;1.00;;;;;;5177848;28;20122;-70
2023/06/17 07:22:35;;;;;;;3.90;2.30;;;19.80;1.00;;;;;;5162150;28;20026;-68
2023/06/17 07:25:07;;;;;;;2.05;1.83;;;20.00;1.00;;;;;;5158673;28;20034;-68
2023/06/17 07:27:40;;;;;;;1.95;1.65;;;20.00;1.00;;;;;;5160552;28;20034;-70
2023/06/17 07:30:12;;;;;;;2.08;1.88;;;20.00;1.00;;;;;;5165727;28;20033;-70
2023/06/17 07:32:43;;;;;;;2.08;1.70;;;20.30;1.00;;;;;;5158335;28;20045;-70
2023/06/17 07:35:14;;;;;;;1.63;1.50;;;20.10;1.00;;;;;;5183472;28;20215;-70
2023/06/17 07:37:46;;;;;;;2.35;1.92;;;19.90;1.00;;;;;;5157796;28;20045;-69
2023/06/17 07:40:17;;;;;;;2.05;1.83;;;19.90;1.00;;;;;;5176675;28;20025;-67
2023/06/17 07:42:49;;;;;;;2.15;1.95;;;19.80;1.00;;;;;;5158096;28;20026;-69
2023/06/17 07:45:22;;;;;;;1.85;1.50;;;20.10;1.00;;;;;;5173900;28;20321;-69
2023/06/17 07:47:54;;;;;;;2.50;1.98;;;20.40;1.00;;;;;;5159629;28;20072;-69
2023/06/17 07:50:25;;;;;;;2.22;1.90;;;20.20;1.00;;;;;;5168620;28;20026;-68
2023/06/17 07:52:57;;;;;;;2.47;1.50;;;20.40;1.00;;;;;;5173797;28;20026;-69
2023/06/17 07:55:28;;;;;;;1.80;1.52;;;20.70;1.00;;;;;;5164888;28;20045;-70
2023/06/17 07:58:00;;;;;;;2.65;1.90;;;20.80;1.00;;;;;;5155655;28;20033;-69
2023/06/17 08:00:33;;;;;;;1.77;1.35;;;20.70;1.00;;;;;;5163373;28;20046;-68
2023/06/17 08:03:05;;;;;;;3.05;2.20;;;20.80;99.90;;;;;;5174676;28;20025;-68
2023/06/17 08:05:42;;;;;;;2.13;1.70;;;20.70;1.00;;;;;;5153730;28;20056;-70
2023/06/17 08:08:15;;;;;;;3.28;2.30;;;20.80;99.90;;;;;;5162081;28;20323;-69
2023/06/17 08:10:49;;;;;;;4.70;1.75;;;21.10;99.90;;;;;;5175960;28;20033;-68
2023/06/17 08:13:20;;;;;;;2.78;2.05;;;20.90;99.90;;;;;;5173784;28;20026;-69
2023/06/17 08:15:53;;;;;;;2.08;1.70;;;20.90;99.90;;;;;;5139219;28;20033;-71
2023/06/17 08:18:25;;;;;;;5.03;2.30;;;21.20;99.90;;;;;;5175537;28;20029;-67
2023/06/17 08:20:57;;;;;;;2.17;1.90;;;21.20;99.90;;;;;;5174108;28;20030;-69
2023/06/17 08:23:28;;;;;;;2.22;1.70;;;21.00;99.90;;;;;;5158643;28;20026;-68
2023/06/17 08:26:03;;;;;;;3.55;1.80;;;21.70;99.90;;;;;;5174674;28;20033;-70
2023/06/17 08:28:39;;;;;;;2.75;2.05;;;22.00;99.90;;;;;;5161549;28;20030;-68
2023/06/17 08:31:11;;;;;;;2.58;1.88;;;21.80;99.90;;;;;;5178713;28;20026;-67
2023/06/17 08:33:43;;;;;;;3.45;1.50;;;21.90;99.90;;;;;;5162253;28;20029;-69
2023/06/17 08:36:16;;;;;;;2.40;2.10;;;22.40;99.90;;;;;;5144478;28;20034;-69
2023/06/17 08:38:52;;;;;;;2.10;1.60;;;22.60;99.90;;;;;;5176361;28;20072;-69
2023/06/17 08:41:27;;;;;;;2.80;1.42;;;22.60;99.90;;;;;;5160885;28;20038;-69
2023/06/17 08:44:01;;;;;;;2.22;1.77;;;22.20;99.90;;;;;;5178057;28;20018;-69
2023/06/17 08:46:41;;;;;;;2.28;2.00;;;22.10;64.40;;;;;;5191112;28;20033;-70
2023/06/17 08:49:13;;;;;;;2.30;1.75;;;21.90;34.70;;;;;;5160961;28;20033;-69
2023/06/17 08:51:49;;;;;;;2.60;1.83;;;22.60;86.30;;;;;;5144987;28;20053;-68
2023/06/17 08:54:22;;;;;;;2.05;1.42;;;23.00;99.90;;;;;;5161007;28;20060;-71
2023/06/17 08:56:54;;;;;;;3.15;1.90;;;22.80;1.00;;;;;;5146449;28;20022;-71
2023/06/17 08:59:25;;;;;;;2.38;2.10;;;22.80;1.00;;;;;;5171328;28;20460;-70
2023/06/17 09:02:02;;;;;;;2.20;2.00;;;22.90;1.00;;;;;;5159280;28;20040;-69
2023/06/17 09:04:44;;;;;;;2.13;1.75;;;23.50;1.00;;;;;;5175790;28;20045;-70
2023/06/17 09:07:19;;;;;;;4.25;1.80;;;23.40;1.10;;;;;;5177999;28;20499;-70
2023/06/17 09:09:56;;;;;;;2.50;1.60;;;23.60;1.00;;;;;;5162231;28;20038;-70
2023/06/17 09:12:36;;;;;;;2.40;1.98;;;23.90;1.00;;;;;;5165171;28;20047;-70
2023/06/17 09:15:17;;;;;;;2.28;1.95;;;24.30;1.00;;;;;;5177695;28;20452;-71
2023/06/17 09:17:49;;;;;;;2.40;1.98;;;24.40;1.00;;;;;;5181331;28;20026;-69
2023/06/17 09:20:23;;;;;;;2.25;1.75;;;24.20;1.00;;;;;;5176978;28;20024;-69
2023/06/17 09:22:57;;;;;;;2.38;1.77;;;24.10;1.00;;;;;;5159920;28;20037;-69
2023/06/17 09:25:33;;;;;;;1.92;1.80;;;24.40;1.00;;;;;;5164879;28;20153;-70
2023/06/17 09:28:04;;;;;;;2.28;1.90;;;24.60;1.00;;;;;;5165835;28;20033;-69
2023/06/17 09:30:42;;;;;;;1.83;1.70;;;25.20;1.00;;;;;;5193434;28;20037;-70
2023/06/17 09:33:18;;;;;;;2.90;2.45;;;24.90;1.00;;;;;;5190127;28;20026;-69
2023/06/17 09:36:17;;;;;;;2.20;2.00;;;24.70;1.00;;;;;;5170118;28;20042;-69
2023/06/17 09:38:51;;;;;;;3.47;2.85;;;24.60;1.00;;;;;;5144566;28;20022;-70
2023/06/17 09:41:23;;;;;;;2.55;1.63;;;24.50;1.00;;;;;;5179034;28;20361;-69
2023/06/17 09:43:57;;;;;;;2.65;2.10;;;24.60;1.00;;;;;;5164851;28;20038;-68
2023/06/17 09:46:35;;;;;;;2.08;1.85;;;24.80;1.00;;;;;;5159222;28;20387;-68
2023/06/17 09:49:12;;;;;;;2.70;2.33;;;24.90;1.00;;;;;;5147393;28;20052;-70
2023/06/17 09:51:43;;;;;;;2.70;1.90;;;25.00;1.00;;;;;;5179305;28;20028;-69
2023/06/17 09:54:21;;;;;;;8.10;2.72;;;24.50;1.00;;;;;;5180013;28;20307;-67
2023/06/17 09:56:56;;;;;;;3.28;2.20;;;23.90;1.00;;;;;;5179110;28;20030;-69
2023/06/17 09:59:30;;;;;;;;;;;23.90;1.00;;;;;;5159469;28;20025;-67
2023/06/17 10:02:01;;;;;;;1.92;1.73;;;24.10;1.00;;;;;;5174023;28;19973;-70
2023/06/17 10:04:35;;;;;;;2.90;1.95;;;24.50;1.00;;;;;;5195364;28;20040;-69
2023/06/17 10:07:13;;;;;;;2.60;2.40;;;24.80;99.90;;;;;;5157011;28;20052;-69
2023/06/17 10:09:49;;;;;;;2.00;1.90;;;24.60;99.90;;;;;;5173600;28;20028;-70
2023/06/17 10:12:24;;;;;;;2.13;1.92;;;24.70;99.90;;;;;;5162179;28;20039;-70
2023/06/17 10:15:00;;;;;;;2.05;1.77;;;24.80;99.90;;;;;;5177596;28;20022;-69
2023/06/17 10:17:37;;;;;;;2.13;1.80;;;25.00;99.90;;;;;;5155000;28;20040;-68
2023/06/17 10:20:11;;;;;;;2.05;1.75;;;24.50;99.90;;;;;;5174133;28;20033;-69
2023/06/17 10:22:43;;;;;;;;;;;24.00;45.60;;;;;;5187410;28;20021;-70
2023/06/17 10:25:17;;;;;;;3.20;1.95;;;24.10;61.40;;;;;;5181906;28;19908;-70
2023/06/17 10:27:48;;;;;;;2.63;1.70;;;24.10;97.50;;;;;;5150069;28;20038;-70
2023/06/17 10:30:27;;;;;;;3.75;2.42;;;24.80;30.00;;;;;;5175915;28;20348;-70
2023/06/17 10:33:02;;;;;;;2.75;2.22;;;26.10;99.90;;;;;;5176516;28;20014;-69
2023/06/17 10:35:37;;;;;;;2.15;1.80;;;27.30;99.90;;;;;;5176985;28;20040;-70
2023/06/17 10:38:28;;;;;;;2.22;1.80;;;27.30;1.00;;;;;;5176754;28;20037;-69
2023/06/17 10:40:59;;;;;;;2.60;2.00;;;26.10;1.00;;;;;;5177570;28;20396;-67
2023/06/17 10:43:38;;;;;;;3.38;2.25;;;26.70;1.00;;;;;;5176979;28;20025;-68
2023/06/17 10:46:09;;;;;;;2.95;2.03;;;27.60;1.00;;;;;;5156266;28;20051;-71
2023/06/17 10:48:40;;;;;;;2.83;1.80;;;27.40;1.00;;;;;;5176265;28;20300;-68
2023/06/17 10:51:12;;;;;;;2.40;1.77;;;25.50;1.00;;;;;;5177386;28;20039;-68
2023/06/17 10:53:48;;;;;;;3.72;1.90;;;26.10;1.00;;;;;;5175154;28;20017;-70
2023/06/17 10:56:22;;;;;;;3.67;2.15;;;25.70;6.00;;;;;;5142306;28;20472;-69
2023/06/17 10:58:56;;;;;;;2.28;2.08;;;24.60;1.00;;;;;;5159330;28;20026;-69
2023/06/17 11:01:27;;;;;;;3.92;2.50;;;23.90;1.00;;;;;;5169764;28;20033;-70
2023/06/17 11:04:07;;;;;;;3.13;2.08;;;24.50;99.90;;;;;;5174757;28;20014;-70
2023/06/17 11:06:40;;;;;;;2.13;1.83;;;25.90;99.90;;;;;;5163078;28;20044;-71
2023/06/17 11:09:15;;;;;;;3.10;2.13;;;27.50;99.90;;;;;;5175447;28;20058;-68
2023/06/17 11:11:46;;;;;;;2.00;1.80;;;29.50;99.90;;;;;;5176524;28;20025;-70
2023/06/17 11:14:18;;;;;;;5.95;2.03;;;30.80;99.90;;;;;;5192066;28;20030;-70
2023/06/17 11:16:52;;;;;;;2.25;1.95;;;30.20;99.90;;;;;;5141885;28;20034;-69
2023/06/17 11:19:24;;;;;;;2.15;1.70;;;28.40;1.00;;;;;;5185724;28;20030;-69
2023/06/17 11:22:07;;;;;;;2.92;2.13;;;27.90;1.00;;;;;;5144167;28;20036;-71
2023/06/17 11:24:40;;;;;;;2.85;2.13;;;27.10;1.00;;;;;;5160221;28;20026;-69
2023/06/17 11:27:14;;;;;;;2.67;2.15;;;26.10;1.00;;;;;;5175568;28;20038;-69
2023/06/17 11:29:51;;;;;;;2.72;2.03;;;25.30;1.00;;;;;;5177403;28;20033;-69
2023/06/17 11:32:22;;;;;;;2.30;2.10;;;25.40;1.00;;;;;;5173948;28;20032;-69
2023/06/17 11:34:56;;;;;;;2.83;2.03;;;25.60;1.00;;;;;;5144019;28;20052;-67
2023/06/17 11:37:28;;;;;;;2.08;1.88;;;26.10;1.00;;;;;;5160450;28;20369;-69
2023/06/17 11:40:04;;;;;;;2.45;2.05;;;27.50;1.00;;;;;;5161566;28;20125;-69
2023/06/17 11:42:38;;;;;;;2.20;2.00;;;28.20;1.00;;;;;;5162161;28;20342;-70
2023/06/17 11:45:10;;;;;;;;;;;28.50;1.00;;;;;;5141845;28;20110;-70
2023/06/17 11:47:41;;;;;;;2.35;1.80;;;28.60;1.00;;;;;;5177402;28;20204;-68
2023/06/17 11:50:14;;;;;;;3.65;2.13;;;28.60;1.00;;;;;;5174428;28;20030;-69
2023/06/17 11:52:56;;;;;;;2.13;1.52;;;27.30;1.00;;;;;;5174437;28;20034;-66
2023/06/17 11:55:32;;;;;;;2.30;1.63;;;27.20;1.00;;;;;;5176440;28;20514;-67
2023/06/17 11:58:04;;;;;;;2.83;2.17;;;26.30;99.90;;;;;;5158471;28;20014;-67
2023/06/17 12:00:38;;;;;;;2.25;2.00;;;26.50;99.90;;;;;;5155879;28;20025;-71
2023/06/17 12:03:12;;;;;;;2.43;2.17;;;27.00;1.00;;;;;;5193689;28;20036;-71
2023/06/17 12:05:44;;;;;;;3.13;1.88;;;28.50;1.00;;;;;;5149853;28;20599;-69
2023/06/17 12:08:16;;;;;;;2.30;1.98;;;28.40;1.00;;;;;;5150558;28;20041;-69
2023/06/17 12:10:47;;;;;;;2.08;1.85;;;28.50;1.00;;;;;;5178841;28;20476;-69
2023/06/17 12:13:19;;;;;;;2.95;2.08;;;28.90;1.00;;;;;;5162653;28;20029;-69
2023/06/17 12:15:53;;;;;;;2.50;1.95;;;28.90;99.90;;;;;;5160032;28;20037;-68
2023/06/17 12:18:29;;;;;;;1.77;1.48;;;29.90;99.90;;;;;;5146288;28;20444;-69
2023/06/17 12:21:03;;;;;;;3.70;2.10;;;30.40;99.90;;;;;;5146389;28;20030;-70
2023/06/17 12:23:34;;;;;;;;;;;29.50;1.00;;;;;;5178590;28;20302;-67
2023/06/17 12:26:10;;;;;;;2.90;2.05;;;28.40;1.00;;;;;;5180266;28;19901;-69
2023/06/17 12:28:45;;;;;;;2.53;2.15;;;28.10;1.00;;;;;;5163916;28;20041;-67
2023/06/17 12:31:19;;;;;;;2.17;1.88;;;27.70;1.00;;;;;;5177139;28;20058;-71
2023/06/17 12:33:51;;;;;;;2.10;1.70;;;27.40;1.00;;;;;;5181104;28;20334;-69
2023/06/17 12:36:26;;;;;;;2.33;1.95;;;26.90;1.00;;;;;;5163825;28;20029;-68
2023/06/17 12:39:00;;;;;;;3.55;2.75;;;25.50;1.00;;;;;;5178206;28;20044;-69
2023/06/17 12:41:31;;;;;;;2.28;2.08;;;24.60;99.90;;;;;;5166266;28;20052;-68
2023/06/17 12:44:03;;;;;;;3.30;2.33;;;24.40;99.90;;;;;;5164896;28;20036;-67
2023/06/17 12:46:38;;;;;;;3.20;2.30;;;24.90;1.00;;;;;;5179464;28;20049;-69
2023/06/17 12:49:14;;;;;;;;;;;26.00;99.90;;;;;;5181638;28;20550;-68
2023/06/17 12:51:48;;;;;;;2.22;1.90;;;27.90;1.00;;;;;;5164124;28;20109;-69
2023/06/17 12:54:19;;;;;;;4.13;1.50;;;28.60;1.00;;;;;;5163333;28;20044;-70
2023/06/17 12:56:50;;;;;;;2.47;1.70;;;29.30;99.90;;;;;;5194764;28;20032;-67
2023/06/17 12:59:25;;;;;;;1.50;1.38;;;28.60;99.90;;;;;;5165338;28;20489;-69
2023/06/17 13:01:56;;;;;;;1.52;1.40;;;26.10;1.00;;;;;;5140495;28;20387;-69
2023/06/17 13:04:27;;;;;;;4.53;1.60;;;24.90;1.00;;;;;;5139843;28;20025;-68
2023/06/17 13:06:59;;;;;;;1.52;1.02;;;25.60;1.00;;;;;;5163479;28;20048;-68
2023/06/17 13:09:34;;;;;;;1.70;1.30;;;26.00;1.00;;;;;;5179744;28;20036;-66
2023/06/17 13:12:06;;;;;;;1.30;1.08;;;25.70;1.00;;;;;;5197385;28;20024;-68
2023/06/17 13:14:37;;;;;;;1.90;1.20;;;25.30;1.00;;;;;;5178401;28;20045;-68
2023/06/17 13:17:10;;;;;;;1.55;1.10;;;25.10;1.00;;;;;;5160816;28;20535;-69
2023/06/17 13:19:44;;;;;;;1.65;1.25;;;25.30;1.00;;;;;;5159633;28;20053;-69
2023/06/17 13:22:15;;;;;;;1.05;1.02;;;25.40;1.00;;;;;;5147619;28;20380;-69
2023/06/17 13:24:47;;;;;;;2.38;1.20;;;26.20;1.00;;;;;;5196699;28;20026;-69
2023/06/17 13:27:19;;;;;;;1.73;1.17;;;25.90;1.00;;;;;;5146952;28;20314;-69
2023/06/17 13:29:50;;;;;;;1.40;1.20;;;25.40;1.00;;;;;;5147774;28;20049;-67
2023/06/17 13:32:25;;;;;;;3.78;1.30;;;25.60;1.00;;;;;;5177448;28;20315;-70
2023/06/17 13:34:59;;;;;;;1.67;1.20;;;25.70;1.00;;;;;;5162833;28;20034;-70
2023/06/17 13:37:31;;;;;;;1.40;1.30;;;26.60;1.00;;;;;;5130609;28;20048;-69
2023/06/17 13:40:03;;;;;;;1.48;1.27;;;27.90;1.00;;;;;;5163261;28;20028;-71
2023/06/17 13:42:38;;;;;;;1.58;1.40;;;27.80;1.00;;;;;;5164381;28;20584;-69
2023/06/17 13:45:11;;;;;;;1.67;1.40;;;27.30;1.00;;;;;;5145823;28;20338;-72
2023/06/17 13:47:46;;;;;;;2.20;1.63;;;26.50;1.00;;;;;;5159067;28;20048;-68
2023/06/17 13:50:21;;;;;;;2.00;1.30;;;26.50;1.00;;;;;;5166917;28;20030;-70